首页
METAR-TAF:

METAR-TAF

机场 :

帕德博恩/利普施塔特机场

Paderborn-Lippstadt, 德国

纬度: 51-37N, 经度: 008-37E, 海拔: 213米

当前天气观测

该预报发布于32分钟前的18:20 UTC
风速6节,风向西转西北,在西转西南西北之间变化
温度 26°C
湿度 45%
气压 1022 hPa
能见度10公里或以上
1500米以下无云,无积雨云

METAR: EDLP 221820Z 29006KT 250V320 CAVOK 26/13 Q1022

时间: 20:52 (18:52 UTC)

预报

该预报发布于1小时和52分钟前的17:00 UTC
预报有效从22日的 18点(UTC)到 23日的 18点(UTC)
风速5节,风向西
能见度10公里或以上
1500米以下无云,无积雨云
成为
从 22日的 18点(UTC)到 22日的 20点(UTC)
风速3节,风向多变

TAF: EDLP 221700Z 2218/2318 27005KT CAVOK BECMG 2218/2220 VRB03KT

超过4000个机场的气象观测和天气预报(METAR&TAF报告)。

可查询的气象台以黄色和红色小点在地图上表示。

将鼠标移到小点上方,可查看气象台名称。

然后点击查看天气观测和预报。

如需切换地图:点击带黑十字的绿色按钮放大地图;点击带横线的绿色按钮缩小地图;或者点击绿色箭头查看邻近地区的地图。


METAR-TAF: